Time;durP1;ratioP1;P1;durP2;ratioP2;P2;SDS_P1;SDS_P2;PMS_P1;PMS_P2;Temp;Humidity;BMP_temperature;BMP_pressure;BME280_temperature;BME280_humidity;BME280_pressure;Samples;Min_cycle;Max_cycle;Signal;HPM_P1;HPM_P2
2024/01/05 00:00:01;;;;;;;;;;;;;;;;;;2205537;67;2143;-19
2024/01/05 00:02:31;;;;;;;;;;;;;;;;;;2206024;59;2005;-19
2024/01/05 00:05:02;;;;;;;;;;;;;;;;;;2206473;67;1951;-17
2024/01/05 00:07:33;;;;;;;;;;;;;;;;;;2206720;59;2311;-17
2024/01/05 00:10:03;;;;;;;;;;;;;;;;;;2205937;59;1821;-17
2024/01/05 00:12:34;;;;;;;;;;;;;;;;;;2206900;67;1859;-19
2024/01/05 00:15:04;;;;;;;;;;;;;;;;;;2207175;59;1856;-19
2024/01/05 00:17:35;;;;;;;;;;;;;;;;;;2206387;67;2002;-17
2024/01/05 00:20:08;;;;;;;;;;;;;;;;;;2203890;59;1787;-19
2024/01/05 00:22:38;;;;;;;;;;;;;;;;;;2205704;67;1820;-19
2024/01/05 00:25:09;;;;;;;;;;;;;;;;;;2206748;59;2579;-17
2024/01/05 00:27:39;;;;;;;;;;;;;;;;;;2206049;67;1823;-17
2024/01/05 00:30:10;;;;;;;;;;;;;;;;;;2205068;67;1739;-20
2024/01/05 00:32:40;;;;;;;;;;;;;;;;;;2206582;59;2229;-19
2024/01/05 00:35:12;;;;;;;;;;;;;;;;;;2204812;59;2205;-20
2024/01/05 00:37:43;;;;;;;;;;;;;;;;;;2206335;67;1935;-19
2024/01/05 00:40:14;;;;;;;;;;;;;;;;;;2205973;59;1836;-17
2024/01/05 00:42:45;;;;;;;;;;;;;;;;;;2206569;59;1796;-17
2024/01/05 00:45:15;;;;;;;;;;;;;;;;;;2205314;59;1909;-17
2024/01/05 00:47:45;;;;;;;;;;;;;;;;;;2205605;67;1907;-17
2024/01/05 00:50:16;;;;;;;;;;;;;;;;;;2206213;59;1715;-17
2024/01/05 00:52:46;;;;;;;;;;;;;;;;;;2206388;59;2042;-19
2024/01/05 00:55:16;;;;;;;;;;;;;;;;;;2207692;67;2132;-20
2024/01/05 00:57:47;;;;;;;;;;;;;;;;;;2206167;67;1990;-20
2024/01/05 01:00:18;;;;;;;;;;;;;;;;;;2206102;67;2132;-17
2024/01/05 01:02:49;;;;;;;;;;;;;;;;;;2205277;59;2430;-17
2024/01/05 01:05:19;;;;;;;;;;;;;;;;;;2206228;67;1870;-20
2024/01/05 01:07:50;;;;;;;;;;;;;;;;;;2206304;59;1998;-20
2024/01/05 01:10:20;;;;;;;;;;;;;;;;;;2204194;67;2019;-18
2024/01/05 01:12:51;;;;;;;;;;;;;;;;;;2206065;67;1980;-17
2024/01/05 01:15:21;;;;;;;;;;;;;;;;;;2206841;59;1888;-17
2024/01/05 01:17:52;;;;;;;;;;;;;;;;;;2206409;67;2061;-17
2024/01/05 01:20:22;;;;;;;;;;;;;;;;;;2207050;59;1768;-17
2024/01/05 01:22:53;;;;;;;;;;;;;;;;;;2206010;67;1834;-20
2024/01/05 01:25:24;;;;;;;;;;;;;;;;;;2206401;59;1872;-20
2024/01/05 01:27:54;;;;;;;;;;;;;;;;;;2206441;59;2027;-17
2024/01/05 01:30:25;;;;;;;;;;;;;;;;;;2206335;59;1918;-19
2024/01/05 01:32:56;;;;;;;;;;;;;;;;;;2206049;59;3056;-19
2024/01/05 01:35:26;;;;;;;;;;;;;;;;;;2206338;59;2046;-20
2024/01/05 01:37:57;;;;;;;;;;;;;;;;;;2205771;67;1918;-19
2024/01/05 01:40:27;;;;;;;;;;;;;;;;;;2206388;67;1999;-20
2024/01/05 01:42:58;;;;;;;;;;;;;;;;;;2206373;67;1953;-20
2024/01/05 01:45:28;;;;;;;;;;;;;;;;;;2207448;59;1784;-19
2024/01/05 01:47:58;;;;;;;;;;;;;;;;;;2203920;67;1880;-20
2024/01/05 01:50:29;;;;;;;;;;;;;;;;;;2206455;67;1960;-20
2024/01/05 01:52:59;;;;;;;;;;;;;;;;;;2205805;59;2199;-17
2024/01/05 01:55:30;;;;;;;;;;;;;;;;;;2207275;67;1852;-17
2024/01/05 01:58:00;;;;;;;;;;;;;;;;;;2206088;67;2029;-17
2024/01/05 02:00:32;;;;;;;;;;;;;;;;;;2207152;67;1665;-20
2024/01/05 02:03:03;;;;;;;;;;;;;;;;;;2207427;59;2227;-19
2024/01/05 02:05:34;;;;;;;;;;;;;;;;;;2204736;59;1769;-20
2024/01/05 02:08:04;;;;;;;;;;;;;;;;;;2206243;59;1850;-20
2024/01/05 02:10:35;;;;;;;;;;;;;;;;;;2206140;67;1825;-20
2024/01/05 02:13:05;;;;;;;;;;;;;;;;;;2206781;59;1969;-19
2024/01/05 02:15:36;;;;;;;;;;;;;;;;;;2209711;66;1785;-18
2024/01/05 02:18:13;;;;;;;;;;;;;;;;;;2205612;59;2511;-19
2024/01/05 02:20:44;;;;;;;;;;;;;;;;;;2206916;59;1823;-17
2024/01/05 02:23:25;;;;;;;;;;;;;;;;;;2206423;59;1879;-17
2024/01/05 02:25:55;;;;;;;;;;;;;;;;;;2205939;67;2210;-17
2024/01/05 02:28:26;;;;;;;;;;;;;;;;;;2206718;67;1828;-19
2024/01/05 02:30:56;;;;;;;;;;;;;;;;;;2206353;59;2178;-18
2024/01/05 02:33:27;;;;;;;;;;;;;;;;;;2204702;59;2174;-18
2024/01/05 02:35:57;;;;;;;;;;;;;;;;;;2206019;59;1979;-18
2024/01/05 02:38:27;;;;;;;;;;;;;;;;;;2207206;59;2022;-18
2024/01/05 02:40:58;;;;;;;;;;;;;;;;;;2204657;59;1977;-19
2024/01/05 02:43:29;;;;;;;;;;;;;;;;;;2208224;67;1985;-19
2024/01/05 02:46:00;;;;;;;;;;;;;;;;;;2207894;59;1919;-19
2024/01/05 02:48:30;;;;;;;;;;;;;;;;;;2208970;59;1791;-20
2024/01/05 02:51:00;;;;;;;;;;;;;;;;;;2205677;67;2060;-20
2024/01/05 02:53:31;;;;;;;;;;;;;;;;;;2206145;67;1758;-18
2024/01/05 02:56:01;;;;;;;;;;;;;;;;;;2206273;67;1852;-17
2024/01/05 02:58:32;;;;;;;;;;;;;;;;;;2206530;59;1975;-20
2024/01/05 03:01:04;;;;;;;;;;;;;;;;;;2206685;59;1904;-17
2024/01/05 03:03:35;;;;;;;;;;;;;;;;;;2205999;59;1996;-19
2024/01/05 03:06:06;;;;;;;;;;;;;;;;;;2205890;59;1807;-19
2024/01/05 03:08:36;;;;;;;;;;;;;;;;;;2206724;59;2001;-20
2024/01/05 03:11:07;;;;;;;;;;;;;;;;;;2207183;67;2280;-19
2024/01/05 03:13:37;;;;;;;;;;;;;;;;;;2206320;59;2638;-19
2024/01/05 03:16:07;;;;;;;;;;;;;;;;;;2205207;59;1842;-17
2024/01/05 03:18:38;;;;;;;;;;;;;;;;;;2206457;67;1937;-17
2024/01/05 03:21:09;;;;;;;;;;;;;;;;;;2206420;59;1958;-18
2024/01/05 03:23:39;;;;;;;;;;;;;;;;;;2206150;59;2157;-17
2024/01/05 03:26:10;;;;;;;;;;;;;;;;;;2206752;67;1772;-17
2024/01/05 03:28:40;;;;;;;;;;;;;;;;;;2206767;67;1936;-17
2024/01/05 03:31:12;;;;;;;;;;;;;;;;;;2202768;59;1719;-20
2024/01/05 03:33:44;;;;;;;;;;;;;;;;;;2206663;59;2047;-20
2024/01/05 03:36:15;;;;;;;;;;;;;;;;;;2206782;67;1959;-19
2024/01/05 03:38:45;;;;;;;;;;;;;;;;;;2207066;67;1943;-19
2024/01/05 03:41:16;;;;;;;;;;;;;;;;;;2205919;67;1979;-19
2024/01/05 03:43:46;;;;;;;;;;;;;;;;;;2206557;59;1859;-17
2024/01/05 03:46:16;;;;;;;;;;;;;;;;;;2205565;59;1978;-20
2024/01/05 03:48:47;;;;;;;;;;;;;;;;;;2208166;67;1851;-20
2024/01/05 03:51:17;;;;;;;;;;;;;;;;;;2204211;67;1827;-20
2024/01/05 03:53:48;;;;;;;;;;;;;;;;;;2206429;67;1752;-17
2024/01/05 03:56:18;;;;;;;;;;;;;;;;;;2205980;67;2435;-20
2024/01/05 03:58:49;;;;;;;;;;;;;;;;;;2206198;59;1986;-20
2024/01/05 04:01:20;;;;;;;;;;;;;;;;;;2206090;59;2125;-19
2024/01/05 04:03:50;;;;;;;;;;;;;;;;;;2207071;67;1797;-20
2024/01/05 04:06:21;;;;;;;;;;;;;;;;;;2206963;59;1754;-20
2024/01/05 04:08:52;;;;;;;;;;;;;;;;;;2206742;59;1921;-20
2024/01/05 04:11:25;;;;;;;;;;;;;;;;;;2207061;67;1815;-20
2024/01/05 04:13:57;;;;;;;;;;;;;;;;;;2207104;59;2036;-17
2024/01/05 04:16:28;;;;;;;;;;;;;;;;;;2206364;67;1913;-17
2024/01/05 04:18:58;;;;;;;;;;;;;;;;;;2207100;67;1950;-17
2024/01/05 04:21:28;;;;;;;;;;;;;;;;;;2205935;59;1878;-20
2024/01/05 04:23:59;;;;;;;;;;;;;;;;;;2205493;59;2001;-20
2024/01/05 04:26:29;;;;;;;;;;;;;;;;;;2206795;67;2122;-20
2024/01/05 04:29:00;;;;;;;;;;;;;;;;;;2206160;67;1787;-18
2024/01/05 04:31:30;;;;;;;;;;;;;;;;;;2206819;67;1940;-20
2024/01/05 04:34:02;;;;;;;;;;;;;;;;;;2206839;59;2268;-17
2024/01/05 04:36:32;;;;;;;;;;;;;;;;;;2207419;59;1929;-17
2024/01/05 04:39:04;;;;;;;;;;;;;;;;;;2205287;67;1926;-17
2024/01/05 04:41:35;;;;;;;;;;;;;;;;;;2206609;59;1835;-17
2024/01/05 04:44:05;;;;;;;;;;;;;;;;;;2208558;66;1865;-17
2024/01/05 04:46:36;;;;;;;;;;;;;;;;;;2206611;58;1966;-18
2024/01/05 04:49:06;;;;;;;;;;;;;;;;;;2208705;66;1893;-20
2024/01/05 04:51:37;;;;;;;;;;;;;;;;;;2206957;67;1734;-20
2024/01/05 04:54:07;;;;;;;;;;;;;;;;;;2205988;59;2020;-18
2024/01/05 04:56:37;;;;;;;;;;;;;;;;;;2207252;67;1845;-17
2024/01/05 04:59:08;;;;;;;;;;;;;;;;;;2206348;59;1943;-18
2024/01/05 05:01:38;;;;;;;;;;;;;;;;;;2207062;59;2174;-17
2024/01/05 05:04:09;;;;;;;;;;;;;;;;;;2206477;59;1953;-18
2024/01/05 05:06:39;;;;;;;;;;;;;;;;;;2206648;59;1879;-17
2024/01/05 05:09:10;;;;;;;;;;;;;;;;;;2206090;59;1970;-18
2024/01/05 05:11:40;;;;;;;;;;;;;;;;;;2207337;67;1858;-17
2024/01/05 05:14:11;;;;;;;;;;;;;;;;;;2207644;59;1846;-17
2024/01/05 05:16:41;;;;;;;;;;;;;;;;;;2206172;59;1787;-20
2024/01/05 05:19:12;;;;;;;;;;;;;;;;;;2206072;67;1983;-20
2024/01/05 05:21:43;;;;;;;;;;;;;;;;;;2206176;67;1860;-17
2024/01/05 05:24:14;;;;;;;;;;;;;;;;;;2205816;59;2507;-17
2024/01/05 05:26:45;;;;;;;;;;;;;;;;;;2206730;67;1902;-17
2024/01/05 05:29:16;;;;;;;;;;;;;;;;;;2206312;67;2128;-19
2024/01/05 05:31:48;;;;;;;;;;;;;;;;;;2206477;67;1767;-20
2024/01/05 05:34:19;;;;;;;;;;;;;;;;;;2206500;59;2195;-19
2024/01/05 05:36:50;;;;;;;;;;;;;;;;;;2205712;67;1783;-20
2024/01/05 05:39:20;;;;;;;;;;;;;;;;;;2204868;59;1930;-20
2024/01/05 05:41:50;;;;;;;;;;;;;;;;;;2206366;67;1902;-20
2024/01/05 05:44:21;;;;;;;;;;;;;;;;;;2205822;59;2095;-20
2024/01/05 05:46:51;;;;;;;;;;;;;;;;;;2205707;67;1843;-17
2024/01/05 05:49:22;;;;;;;;;;;;;;;;;;2205268;59;1815;-20
2024/01/05 05:51:52;;;;;;;;;;;;;;;;;;2203973;67;1986;-18
2024/01/05 05:54:23;;;;;;;;;;;;;;;;;;2207024;67;1918;-17
2024/01/05 05:56:53;;;;;;;;;;;;;;;;;;2206367;59;1816;-20
2024/01/05 05:59:23;;;;;;;;;;;;;;;;;;2206539;67;1992;-19
2024/01/05 06:01:54;;;;;;;;;;;;;;;;;;2206948;59;2157;-17
2024/01/05 06:04:25;;;;;;;;;;;;;;;;;;2206225;59;1825;-17
2024/01/05 06:06:56;;;;;;;;;;;;;;;;;;2207530;59;2016;-17
2024/01/05 06:09:26;;;;;;;;;;;;;;;;;;2206231;59;1874;-17
2024/01/05 06:11:57;;;;;;;;;;;;;;;;;;2207249;67;2568;-17
2024/01/05 06:14:28;;;;;;;;;;;;;;;;;;2206268;59;1978;-17
2024/01/05 06:16:59;;;;;;;;;;;;;;;;;;2203637;67;1842;-17
2024/01/05 06:19:30;;;;;;;;;;;;;;;;;;2206258;67;1935;-17
2024/01/05 06:22:00;;;;;;;;;;;;;;;;;;2206204;59;1895;-18
2024/01/05 06:24:31;;;;;;;;;;;;;;;;;;2206134;59;1917;-17
2024/01/05 06:27:02;;;;;;;;;;;;;;;;;;2209713;59;2912;-17
2024/01/05 06:29:34;;;;;;;;;;;;;;;;;;2205076;59;1948;-19
2024/01/05 06:32:05;;;;;;;;;;;;;;;;;;2205716;59;2103;-17
2024/01/05 06:34:36;;;;;;;;;;;;;;;;;;2207063;59;2718;-17
2024/01/05 06:37:07;;;;;;;;;;;;;;;;;;2206044;59;1873;-19
2024/01/05 06:39:37;;;;;;;;;;;;;;;;;;2208181;53;2548;-17
2024/01/05 06:42:07;;;;;;;;;;;;;;;;;;2206236;59;1805;-17
2024/01/05 06:44:38;;;;;;;;;;;;;;;;;;2208822;59;2929;-17
2024/01/05 06:47:08;;;;;;;;;;;;;;;;;;2206826;59;1828;-17
2024/01/05 06:49:39;;;;;;;;;;;;;;;;;;2207943;67;1836;-19
2024/01/05 06:52:09;;;;;;;;;;;;;;;;;;2206900;59;1847;-17
2024/01/05 06:54:40;;;;;;;;;;;;;;;;;;2208293;67;1861;-19
2024/01/05 06:57:11;;;;;;;;;;;;;;;;;;2206745;59;1836;-17
2024/01/05 06:59:41;;;;;;;;;;;;;;;;;;2208090;59;1998;-17
2024/01/05 07:02:13;;;;;;;;;;;;;;;;;;2207057;59;2021;-17
2024/01/05 07:04:43;;;;;;;;;;;;;;;;;;2206959;67;1823;-19
2024/01/05 07:07:14;;;;;;;;;;;;;;;;;;2208187;59;1777;-20
2024/01/05 07:09:44;;;;;;;;;;;;;;;;;;2207554;67;1763;-17
2024/01/05 07:12:15;;;;;;;;;;;;;;;;;;2205932;67;1849;-18
2024/01/05 07:14:49;;;;;;;;;;;;;;;;;;2208653;59;1883;-19
2024/01/05 07:17:19;;;;;;;;;;;;;;;;;;2206834;67;2066;-19
2024/01/05 07:19:49;;;;;;;;;;;;;;;;;;2209260;59;1956;-17
2024/01/05 07:22:20;;;;;;;;;;;;;;;;;;2206489;59;2030;-17
2024/01/05 07:24:50;;;;;;;;;;;;;;;;;;2208604;67;1817;-18
2024/01/05 07:27:20;;;;;;;;;;;;;;;;;;2207948;67;1998;-17
2024/01/05 07:29:51;;;;;;;;;;;;;;;;;;2208540;67;1818;-17
2024/01/05 07:32:22;;;;;;;;;;;;;;;;;;2207037;67;2297;-17
2024/01/05 07:34:53;;;;;;;;;;;;;;;;;;2208831;67;1846;-19
2024/01/05 07:37:24;;;;;;;;;;;;;;;;;;2207154;67;1891;-19
2024/01/05 07:39:54;;;;;;;;;;;;;;;;;;2207200;59;2000;-19
2024/01/05 07:42:28;;;;;;;;;;;;;;;;;;2207570;67;1757;-19
2024/01/05 07:45:00;;;;;;;;;;;;;;;;;;2207375;67;1972;-19
2024/01/05 07:47:31;;;;;;;;;;;;;;;;;;2207463;67;2082;-19
2024/01/05 07:50:02;;;;;;;;;;;;;;;;;;2207529;67;2052;-19
2024/01/05 07:52:33;;;;;;;;;;;;;;;;;;2207486;59;1945;-17
2024/01/05 07:55:04;;;;;;;;;;;;;;;;;;2206295;59;2760;-19
2024/01/05 07:57:35;;;;;;;;;;;;;;;;;;2207117;67;1873;-19
2024/01/05 08:00:06;;;;;;;;;;;;;;;;;;2209170;53;3204;-18
2024/01/05 08:02:37;;;;;;;;;;;;;;;;;;2207269;59;2926;-17
2024/01/05 08:05:10;;;;;;;;;;;;;;;;;;2207021;59;1837;-17
2024/01/05 08:07:43;;;;;;;;;;;;;;;;;;2208476;59;1769;-20
2024/01/05 08:10:13;;;;;;;;;;;;;;;;;;2207515;59;2229;-19
2024/01/05 08:12:44;;;;;;;;;;;;;;;;;;2208515;59;2087;-17
2024/01/05 08:15:14;;;;;;;;;;;;;;;;;;2207455;59;1855;-20
2024/01/05 08:17:45;;;;;;;;;;;;;;;;;;2207609;59;1833;-19
2024/01/05 08:20:16;;;;;;;;;;;;;;;;;;2207049;59;2024;-20
2024/01/05 08:22:46;;;;;;;;;;;;;;;;;;2210400;66;2233;-20
2024/01/05 08:25:18;;;;;;;;;;;;;;;;;;2209322;58;2162;-19
2024/01/05 08:27:48;;;;;;;;;;;;;;;;;;2207695;67;1791;-18
2024/01/05 08:30:18;;;;;;;;;;;;;;;;;;2207451;67;2184;-20
2024/01/05 08:32:54;;;;;;;;;;;;;;;;;;2206415;59;2682;-20
2024/01/05 08:35:24;;;;;;;;;;;;;;;;;;2203247;59;2293;-17
2024/01/05 08:37:55;;;;;;;;;;;;;;;;;;2207907;59;1940;-19
2024/01/05 08:40:27;;;;;;;;;;;;;;;;;;2208910;59;2944;-17
2024/01/05 08:42:58;;;;;;;;;;;;;;;;;;2207733;59;2332;-20
2024/01/05 08:45:30;;;;;;;;;;;;;;;;;;2205415;59;2686;-17
2024/01/05 08:48:01;;;;;;;;;;;;;;;;;;2207058;59;1821;-20
2024/01/05 08:50:32;;;;;;;;;;;;;;;;;;2203793;59;2268;-20
2024/01/05 08:53:03;;;;;;;;;;;;;;;;;;2206370;59;1835;-20
2024/01/05 08:55:34;;;;;;;;;;;;;;;;;;2207321;59;1790;-17
2024/01/05 08:58:05;;;;;;;;;;;;;;;;;;2207089;67;1973;-20
2024/01/05 09:00:36;;;;;;;;;;;;;;;;;;2206671;67;2134;-20
2024/01/05 09:03:06;;;;;;;;;;;;;;;;;;2207196;59;2759;-20
2024/01/05 09:05:37;;;;;;;;;;;;;;;;;;2207226;59;1942;-17
2024/01/05 09:08:07;;;;;;;;;;;;;;;;;;2207534;59;1846;-18
2024/01/05 09:10:38;;;;;;;;;;;;;;;;;;2206875;67;1897;-20
2024/01/05 09:13:08;;;;;;;;;;;;;;;;;;2206855;59;1766;-17
2024/01/05 09:15:39;;;;;;;;;;;;;;;;;;2206266;67;1780;-18
2024/01/05 09:18:09;;;;;;;;;;;;;;;;;;2205816;67;1947;-20
2024/01/05 09:20:40;;;;;;;;;;;;;;;;;;2205620;67;1966;-18
2024/01/05 09:23:13;;;;;;;;;;;;;;;;;;2206290;59;2134;-20
2024/01/05 09:25:44;;;;;;;;;;;;;;;;;;2206890;59;2026;-20
2024/01/05 09:28:15;;;;;;;;;;;;;;;;;;2205662;67;1998;-20
2024/01/05 09:30:45;;;;;;;;;;;;;;;;;;2206839;67;1844;-20
2024/01/05 09:33:16;;;;;;;;;;;;;;;;;;2206507;59;2335;-20
2024/01/05 09:35:47;;;;;;;;;;;;;;;;;;2206233;59;2459;-20
2024/01/05 09:38:18;;;;;;;;;;;;;;;;;;2205203;59;2110;-18
2024/01/05 09:40:52;;;;;;;;;;;;;;;;;;2207315;59;1802;-18
2024/01/05 09:43:24;;;;;;;;;;;;;;;;;;2203032;59;2735;-20
2024/01/05 09:45:55;;;;;;;;;;;;;;;;;;2207908;59;2516;-20
2024/01/05 09:48:27;;;;;;;;;;;;;;;;;;2206672;59;1745;-20
2024/01/05 09:50:57;;;;;;;;;;;;;;;;;;2206297;59;2430;-20
2024/01/05 09:53:28;;;;;;;;;;;;;;;;;;2205671;59;2531;-20
2024/01/05 09:56:00;;;;;;;;;;;;;;;;;;2206902;59;1851;-20
2024/01/05 09:58:31;;;;;;;;;;;;;;;;;;2205641;59;2602;-20
2024/01/05 10:01:11;;;;;;;;;;;;;;;;;;2207025;59;3405;-20
2024/01/05 10:03:45;;;;;;;;;;;;;;;;;;2202542;59;3337;-18
2024/01/05 10:06:17;;;;;;;;;;;;;;;;;;2202523;59;2050;-18
2024/01/05 10:08:54;;;;;;;;;;;;;;;;;;2209127;59;2665;-20
2024/01/05 10:11:29;;;;;;;;;;;;;;;;;;2206608;59;2272;-18
2024/01/05 10:14:01;;;;;;;;;;;;;;;;;;2207215;59;1783;-18
2024/01/05 10:16:39;;;;;;;;;;;;;;;;;;2206591;67;1811;-20
2024/01/05 10:19:14;;;;;;;;;;;;;;;;;;2205461;59;2409;-18
2024/01/05 10:21:48;;;;;;;;;;;;;;;;;;2207283;59;2457;-19
2024/01/05 10:24:25;;;;;;;;;;;;;;;;;;2205044;59;1956;-18
2024/01/05 10:27:09;;;;;;;;;;;;;;;;;;2207116;59;1859;-18
2024/01/05 10:29:43;;;;;;;;;;;;;;;;;;2206324;59;3190;-20
2024/01/05 10:32:15;;;;;;;;;;;;;;;;;;2205633;59;2511;-20
2024/01/05 10:34:49;;;;;;;;;;;;;;;;;;2205430;59;2522;-20
2024/01/05 10:37:21;;;;;;;;;;;;;;;;;;2203633;59;1996;-20
2024/01/05 10:39:52;;;;;;;;;;;;;;;;;;2207359;59;1995;-18
2024/01/05 10:42:29;;;;;;;;;;;;;;;;;;2205269;59;1952;-18
2024/01/05 10:45:01;;;;;;;;;;;;;;;;;;2206938;59;2429;-20
2024/01/05 10:47:31;;;;;;;;;;;;;;;;;;2206026;59;2550;-20
2024/01/05 10:50:04;;;;;;;;;;;;;;;;;;2206414;67;1869;-18
2024/01/05 10:52:35;;;;;;;;;;;;;;;;;;2205160;59;1973;-17
2024/01/05 10:55:07;;;;;;;;;;;;;;;;;;2206947;59;2360;-20
2024/01/05 10:57:41;;;;;;;;;;;;;;;;;;2204617;59;2073;-18
2024/01/05 11:00:13;;;;;;;;;;;;;;;;;;2204336;59;2999;-20
2024/01/05 11:02:48;;;;;;;;;;;;;;;;;;2205396;59;2598;-18
2024/01/05 11:05:20;;;;;;;;;;;;;;;;;;2202685;59;2980;-18
2024/01/05 11:07:52;;;;;;;;;;;;;;;;;;2206871;59;1995;-18
2024/01/05 11:10:32;;;;;;;;;;;;;;;;;;2206176;59;1778;-18
2024/01/05 11:13:15;;;;;;;;;;;;;;;;;;2206153;59;2308;-18
2024/01/05 11:15:58;;;;;;;;;;;;;;;;;;2205443;59;1849;-20
2024/01/05 11:18:32;;;;;;;;;;;;;;;;;;2205337;67;2008;-20
2024/01/05 11:21:09;;;;;;;;;;;;;;;;;;2206826;67;1814;-18
2024/01/05 11:23:41;;;;;;;;;;;;;;;;;;2205975;59;1862;-18
2024/01/05 11:26:31;;;;;;;;;;;;;;;;;;2208699;59;2408;-18
2024/01/05 11:29:02;;;;;;;;;;;;;;;;;;2208268;59;1986;-19
2024/01/05 11:31:47;;;;;;;;;;;;;;;;;;2206466;59;2006;-18
2024/01/05 11:34:30;;;;;;;;;;;;;;;;;;2207589;59;2239;-18
2024/01/05 11:37:02;;;;;;;;;;;;;;;;;;2208251;53;2890;-20
2024/01/05 11:39:39;;;;;;;;;;;;;;;;;;2207014;67;1976;-18
2024/01/05 11:42:27;;;;;;;;;;;;;;;;;;2208354;59;1813;-18
2024/01/05 11:44:59;;;;;;;;;;;;;;;;;;2207808;59;2948;-18
2024/01/05 11:47:45;;;;;;;;;;;;;;;;;;2206358;67;1814;-20
2024/01/05 11:50:26;;;;;;;;;;;;;;;;;;2206477;59;3380;-18
2024/01/05 11:53:15;;;;;;;;;;;;;;;;;;2207280;59;1834;-18
2024/01/05 11:55:46;;;;;;;;;;;;;;;;;;2207453;59;2252;-18
2024/01/05 11:58:18;;;;;;;;;;;;;;;;;;2208171;59;2361;-21
2024/01/05 12:00:49;;;;;;;;;;;;;;;;;;2207670;59;2121;-20
2024/01/05 12:03:22;;;;;;;;;;;;;;;;;;2207308;59;2764;-20
2024/01/05 12:05:54;;;;;;;;;;;;;;;;;;2206338;59;2866;-17
2024/01/05 12:08:25;;;;;;;;;;;;;;;;;;2208388;59;2069;-20
2024/01/05 12:10:57;;;;;;;;;;;;;;;;;;2208442;59;1936;-20
2024/01/05 12:13:29;;;;;;;;;;;;;;;;;;2206708;59;3415;-18
2024/01/05 12:16:02;;;;;;;;;;;;;;;;;;2208758;53;3702;-20
2024/01/05 12:18:33;;;;;;;;;;;;;;;;;;2207822;66;2539;-18
2024/01/05 12:21:04;;;;;;;;;;;;;;;;;;2213555;59;2543;-18
2024/01/05 12:23:34;;;;;;;;;;;;;;;;;;2210722;59;2266;-20
2024/01/05 12:26:07;;;;;;;;;;;;;;;;;;2212361;59;2006;-20
2024/01/05 12:28:38;;;;;;;;;;;;;;;;;;2210396;66;1902;-19
2024/01/05 12:31:10;;;;;;;;;;;;;;;;;;2211442;59;2667;-20
2024/01/05 12:33:42;;;;;;;;;;;;;;;;;;2209779;59;2117;-20
2024/01/05 12:36:22;;;;;;;;;;;;;;;;;;2212149;59;2470;-20
2024/01/05 12:38:53;;;;;;;;;;;;;;;;;;2212681;59;2002;-20
2024/01/05 12:41:24;;;;;;;;;;;;;;;;;;2212464;66;1964;-20
2024/01/05 12:43:56;;;;;;;;;;;;;;;;;;2210143;59;2056;-20
2024/01/05 12:46:29;;;;;;;;;;;;;;;;;;2210424;59;2022;-18
2024/01/05 12:49:17;;;;;;;;;;;;;;;;;;2213478;66;1759;-19
2024/01/05 12:51:49;;;;;;;;;;;;;;;;;;2211768;59;1930;-20
2024/01/05 12:54:20;;;;;;;;;;;;;;;;;;2211408;66;1914;-19
2024/01/05 12:56:54;;;;;;;;;;;;;;;;;;2211016;59;2086;-20
2024/01/05 12:59:28;;;;;;;;;;;;;;;;;;2211228;66;1980;-18
2024/01/05 13:02:00;;;;;;;;;;;;;;;;;;2212333;59;2064;-19
2024/01/05 13:04:34;;;;;;;;;;;;;;;;;;2210551;59;2359;-20
2024/01/05 13:07:04;;;;;;;;;;;;;;;;;;2214152;59;2599;-20
2024/01/05 13:09:37;;;;;;;;;;;;;;;;;;2211607;59;2488;-20
2024/01/05 13:12:08;;;;;;;;;;;;;;;;;;2213538;59;1993;-19
2024/01/05 13:14:39;;;;;;;;;;;;;;;;;;2211016;59;3215;-20
2024/01/05 13:17:10;;;;;;;;;;;;;;;;;;2211769;59;3318;-20
2024/01/05 13:19:42;;;;;;;;;;;;;;;;;;2210649;59;1949;-19
2024/01/05 13:22:13;;;;;;;;;;;;;;;;;;2211741;59;1862;-20
2024/01/05 13:24:48;;;;;;;;;;;;;;;;;;2211080;59;1847;-19
2024/01/05 13:27:19;;;;;;;;;;;;;;;;;;2210986;66;1872;-20
2024/01/05 13:29:50;;;;;;;;;;;;;;;;;;2211457;66;1979;-20
2024/01/05 13:32:21;;;;;;;;;;;;;;;;;;2212068;59;1923;-19
2024/01/05 13:34:51;;;;;;;;;;;;;;;;;;2212141;66;1877;-18
2024/01/05 13:37:24;;;;;;;;;;;;;;;;;;2212518;59;2020;-19
2024/01/05 13:39:55;;;;;;;;;;;;;;;;;;2211116;59;2041;-19
2024/01/05 13:42:29;;;;;;;;;;;;;;;;;;2214912;59;1937;-19
2024/01/05 13:45:05;;;;;;;;;;;;;;;;;;2213100;59;2485;-19
2024/01/05 13:47:36;;;;;;;;;;;;;;;;;;2213114;59;1998;-20
2024/01/05 13:50:07;;;;;;;;;;;;;;;;;;2212535;66;1980;-20
2024/01/05 13:52:37;;;;;;;;;;;;;;;;;;2211258;66;1898;-19
2024/01/05 13:55:08;;;;;;;;;;;;;;;;;;2212522;66;1795;-20
2024/01/05 13:57:39;;;;;;;;;;;;;;;;;;2209505;66;2640;-19
2024/01/05 14:00:10;;;;;;;;;;;;;;;;;;2212283;59;1947;-21
2024/01/05 14:02:42;;;;;;;;;;;;;;;;;;2211854;66;2306;-20
2024/01/05 14:05:13;;;;;;;;;;;;;;;;;;2213670;59;2012;-20
2024/01/05 14:07:43;;;;;;;;;;;;;;;;;;2209342;59;2344;-21
2024/01/05 14:10:15;;;;;;;;;;;;;;;;;;2212369;59;1986;-18
2024/01/05 14:12:45;;;;;;;;;;;;;;;;;;2211664;59;1952;-20
2024/01/05 14:15:16;;;;;;;;;;;;;;;;;;2211670;59;2831;-20
2024/01/05 14:17:46;;;;;;;;;;;;;;;;;;2210750;59;2899;-20
2024/01/05 14:20:17;;;;;;;;;;;;;;;;;;2212849;66;1944;-19
2024/01/05 14:22:48;;;;;;;;;;;;;;;;;;2211592;66;1842;-20
2024/01/05 14:25:18;;;;;;;;;;;;;;;;;;2213284;58;1808;-19
2024/01/05 14:27:51;;;;;;;;;;;;;;;;;;2211405;66;2176;-19
2024/01/05 14:30:22;;;;;;;;;;;;;;;;;;2210550;59;2646;-20
2024/01/05 14:32:52;;;;;;;;;;;;;;;;;;2210727;66;2459;-18
2024/01/05 14:35:23;;;;;;;;;;;;;;;;;;2212254;66;2265;-20
2024/01/05 14:37:54;;;;;;;;;;;;;;;;;;2210781;66;1800;-19
2024/01/05 14:40:25;;;;;;;;;;;;;;;;;;2212437;66;1947;-18
2024/01/05 14:42:55;;;;;;;;;;;;;;;;;;2210846;59;1836;-21
2024/01/05 14:45:26;;;;;;;;;;;;;;;;;;2209362;59;2332;-21
2024/01/05 14:47:56;;;;;;;;;;;;;;;;;;2213078;66;1852;-18
2024/01/05 14:50:26;;;;;;;;;;;;;;;;;;2212660;66;1750;-20
2024/01/05 14:52:57;;;;;;;;;;;;;;;;;;2210970;59;1840;-19
2024/01/05 14:55:28;;;;;;;;;;;;;;;;;;2212607;66;1797;-19
2024/01/05 14:58:00;;;;;;;;;;;;;;;;;;2211629;66;2062;-21
2024/01/05 15:00:32;;;;;;;;;;;;;;;;;;2212201;66;1916;-21
2024/01/05 15:03:03;;;;;;;;;;;;;;;;;;2212007;59;2012;-21
2024/01/05 15:05:34;;;;;;;;;;;;;;;;;;2209208;59;1846;-18
2024/01/05 15:08:04;;;;;;;;;;;;;;;;;;2211455;59;1900;-18
2024/01/05 15:10:36;;;;;;;;;;;;;;;;;;2211174;59;1996;-18
2024/01/05 15:13:07;;;;;;;;;;;;;;;;;;2214008;58;2231;-18
2024/01/05 15:15:38;;;;;;;;;;;;;;;;;;2210669;59;2098;-20
2024/01/05 15:18:09;;;;;;;;;;;;;;;;;;2211620;59;3325;-19
2024/01/05 15:20:39;;;;;;;;;;;;;;;;;;2208643;58;1936;-20
2024/01/05 15:23:10;;;;;;;;;;;;;;;;;;2210734;66;1771;-21
2024/01/05 15:25:40;;;;;;;;;;;;;;;;;;2211681;66;2473;-20
2024/01/05 15:28:12;;;;;;;;;;;;;;;;;;2212485;59;2253;-20
2024/01/05 15:30:43;;;;;;;;;;;;;;;;;;2208772;59;2676;-21
2024/01/05 15:33:13;;;;;;;;;;;;;;;;;;2212982;59;3042;-19
2024/01/05 15:35:45;;;;;;;;;;;;;;;;;;2210129;66;1801;-21
2024/01/05 15:38:15;;;;;;;;;;;;;;;;;;2213265;59;2006;-19
2024/01/05 15:40:45;;;;;;;;;;;;;;;;;;2211863;66;1943;-21
2024/01/05 15:43:17;;;;;;;;;;;;;;;;;;2212646;66;1974;-18
2024/01/05 15:45:48;;;;;;;;;;;;;;;;;;2209841;59;1870;-18
2024/01/05 15:48:19;;;;;;;;;;;;;;;;;;2212010;59;2268;-21
2024/01/05 15:50:50;;;;;;;;;;;;;;;;;;2210746;59;3494;-18
2024/01/05 15:53:21;;;;;;;;;;;;;;;;;;2212359;58;1719;-18
2024/01/05 15:55:52;;;;;;;;;;;;;;;;;;2210371;66;2163;-18
2024/01/05 15:58:22;;;;;;;;;;;;;;;;;;2212494;66;1995;-21
2024/01/05 16:00:53;;;;;;;;;;;;;;;;;;2210832;59;1891;-21
2024/01/05 16:03:23;;;;;;;;;;;;;;;;;;2213536;66;2406;-21
2024/01/05 16:05:54;;;;;;;;;;;;;;;;;;2212224;59;2429;-20
2024/01/05 16:08:25;;;;;;;;;;;;;;;;;;2212068;59;2430;-21
2024/01/05 16:10:56;;;;;;;;;;;;;;;;;;2209761;59;1826;-18
2024/01/05 16:13:26;;;;;;;;;;;;;;;;;;2212298;59;1915;-21
2024/01/05 16:16:09;;;;;;;;;;;;;;;;;;2211037;59;1897;-20
2024/01/05 16:18:41;;;;;;;;;;;;;;;;;;2209398;62;3358;-21
2024/01/05 16:21:11;;;;;;;;;;;;;;;;;;2211522;66;1892;-20
2024/01/05 16:23:42;;;;;;;;;;;;;;;;;;2211010;59;1834;-18
2024/01/05 16:26:13;;;;;;;;;;;;;;;;;;2212184;66;1849;-18
2024/01/05 16:28:43;;;;;;;;;;;;;;;;;;2212175;66;2473;-18
2024/01/05 16:31:14;;;;;;;;;;;;;;;;;;2211747;59;1889;-21
2024/01/05 16:33:45;;;;;;;;;;;;;;;;;;2211712;59;2100;-20
2024/01/05 16:36:16;;;;;;;;;;;;;;;;;;2211119;59;1828;-19
2024/01/05 16:38:48;;;;;;;;;;;;;;;;;;2211033;59;1971;-20
2024/01/05 16:41:23;;;;;;;;;;;;;;;;;;2213184;66;1826;-18
2024/01/05 16:43:54;;;;;;;;;;;;;;;;;;2211833;66;1908;-19
2024/01/05 16:46:25;;;;;;;;;;;;;;;;;;2212177;59;1815;-20
2024/01/05 16:48:55;;;;;;;;;;;;;;;;;;2212313;66;2025;-20
2024/01/05 16:51:26;;;;;;;;;;;;;;;;;;2211735;59;1822;-19
2024/01/05 16:53:56;;;;;;;;;;;;;;;;;;2209626;59;2007;-18
2024/01/05 16:56:28;;;;;;;;;;;;;;;;;;2211668;59;1853;-18
2024/01/05 16:58:59;;;;;;;;;;;;;;;;;;2210730;59;2293;-18
2024/01/05 17:01:31;;;;;;;;;;;;;;;;;;2211791;63;2168;-19
2024/01/05 17:04:08;;;;;;;;;;;;;;;;;;2209923;59;2064;-20
2024/01/05 17:06:42;;;;;;;;;;;;;;;;;;2212717;59;2053;-19
2024/01/05 17:09:12;;;;;;;;;;;;;;;;;;2211271;59;2331;-20
2024/01/05 17:11:43;;;;;;;;;;;;;;;;;;2212100;66;1916;-20
2024/01/05 17:14:13;;;;;;;;;;;;;;;;;;2211820;59;1822;-18
2024/01/05 17:16:47;;;;;;;;;;;;;;;;;;2211751;59;1945;-20
2024/01/05 17:19:18;;;;;;;;;;;;;;;;;;2209833;59;3308;-18
2024/01/05 17:21:50;;;;;;;;;;;;;;;;;;2210720;66;1924;-18
2024/01/05 17:24:21;;;;;;;;;;;;;;;;;;2210947;66;1903;-20
2024/01/05 17:26:52;;;;;;;;;;;;;;;;;;2210505;59;1789;-19
2024/01/05 17:29:23;;;;;;;;;;;;;;;;;;2210982;66;2490;-18
2024/01/05 17:31:53;;;;;;;;;;;;;;;;;;2211072;66;1947;-18